Isis — PHLD — position and weather

sailwx.info

Track history (hours):
 
Tides and Currents Weather Stations Pressure Air Temp Water Temp Dewpoint Dewpoint Depression Visibility Wind Speed Wind Dir Waves Ship Positions

Isis

Last reported at 2018-Apr-23 13:30 UTC. Time now 2018-Apr-23 13:36 UTC.
Position N 54°10' E 009°26'.

Length 111 m; draft 6.3 m.

Type: Cargo ship. MMSI: 244768000.

Date/timePositionNaut miles runAvg speedWind from/ knotsBaromVisibWave heightAir tempDewpointWater temp
2018-Apr-23 13:30N 54°10' E 009°26'4 8.1
2018-Apr-23 13:00N 54°12' E 009°33'0 0.6
2018-Apr-23 12:30N 54°12' E 009°33'3 6.1
2018-Apr-23 12:00N 54°14' E 009°37'3 6.6
2018-Apr-23 11:30N 54°17' E 009°39'3 6.0
2018-Apr-23 11:00N 54°19' E 009°43'1 1.7
2018-Apr-23 10:30N 54°20' E 009°44'4 7.8
2018-Apr-23 09:59N 54°22' E 009°50'29 4.4
2018-Apr-23 03:15N 54°34' E 010°36'311.0
2018-Apr-23 03:00N 54°35' E 010°40'510.8
2018-Apr-23 02:30N 54°35' E 010°50'510.7
2018-Apr-23 02:00N 54°35' E 010°59'611.4
2018-Apr-23 01:31N 54°36' E 011°09'611.5
2018-Apr-23 01:01N 54°34' E 011°18'611.4
2018-Apr-23 00:30N 54°32' E 011°27'611.2
2018-Apr-23 00:00N 54°29' E 011°36'611.3
2018-Apr-22 23:30N 54°27' E 011°44'611.1
2018-Apr-22 22:57N 54°27' E 011°55'511.8
2018-Apr-22 22:29N 54°27' E 012°04'510.6
2018-Apr-22 22:00N 54°30' E 012°11'611.7
2018-Apr-22 21:30N 54°36' E 012°15'611.1
2018-Apr-22 21:00N 54°39' E 012°22'611.7
2018-Apr-22 20:30N 54°43' E 012°30'611.8
2018-Apr-22 19:59N 54°46' E 012°39'611.8
2018-Apr-22 19:27N 54°49' E 012°49'1111.8
2018-Apr-22 18:29N 54°53' E 013°07'1011.8
2018-Apr-22 17:39N 54°56' E 013°23'1111.4
2018-Apr-22 16:42N 54°60' E 013°41'1411.4
2018-Apr-22 15:26N 55°05' E 014°04'811.5
2018-Apr-22 14:44N 55°12' E 014°13'311.7
2018-Apr-22 14:29N 55°14' E 014°16'611.4
2018-Apr-22 13:57N 55°19' E 014°23'511.3
2018-Apr-22 13:30N 55°22' E 014°29'611.4
2018-Apr-22 13:00N 55°27' E 014°35'611.5
2018-Apr-22 12:30N 55°30' E 014°44'611.7
2018-Apr-22 12:00N 55°33' E 014°53'611.8
2018-Apr-22 11:31N 55°36' E 015°02'611.4
2018-Apr-22 11:01N 55°38' E 015°11'611.4
2018-Apr-22 10:30N 55°41' E 015°19'611.5
2018-Apr-22 10:01N 55°44' E 015°28'611.4
2018-Apr-22 09:31N 55°47' E 015°37'611.5
2018-Apr-22 09:00N 55°50' E 015°46'611.4
2018-Apr-22 08:30N 55°53' E 015°55'611.6
2018-Apr-22 08:00N 55°56' E 016°04'611.4
2018-Apr-22 07:30N 55°58' E 016°12'611.4
2018-Apr-22 07:00N 56°01' E 016°21'611.6
2018-Apr-22 06:31N 56°04' E 016°30'611.6
2018-Apr-22 06:00N 56°07' E 016°39'611.5
2018-Apr-22 05:30N 56°10' E 016°48'510.7
2018-Apr-22 05:01N 56°13' E 016°55'611.1
2018-Apr-22 04:31N 56°17' E 017°03'611.4
2018-Apr-22 04:00N 56°20' E 017°11'611.4
2018-Apr-22 03:30N 56°24' E 017°20'22611.2
2018-Apr-21 07:14N 59°17' E 021°53'4010.4
2018-Apr-21 03:22N 59°36' E 023°03'510.9
2018-Apr-21 02:52N 59°37' E 023°13'411.0
2018-Apr-21 02:30N 59°39' E 023°21'511.1
2018-Apr-21 02:01N 59°40' E 023°31'611.1
2018-Apr-21 01:31N 59°42' E 023°42'610.9
2018-Apr-21 01:00N 59°43' E 023°53'1311.0
2018-Apr-20 23:47N 59°47' E 024°18'311.0
2018-Apr-20 23:30N 59°47' E 024°24'510.9
2018-Apr-20 23:01N 59°48' E 024°35'510.9
2018-Apr-20 22:30N 59°49' E 024°45'611.3
2018-Apr-20 22:00N 59°51' E 024°56'611.3
2018-Apr-20 21:30N 59°52' E 025°07'3310.9
2018-Apr-20 18:28N 59°59' E 026°12'510.6
2018-Apr-20 18:00N 59°60' E 026°22'510.5
2018-Apr-20 17:30N 60°01' E 026°32'510.2
2018-Apr-20 17:01N 60°01' E 026°42'610.6
2018-Apr-20 16:27N 60°00' E 026°54'510.8
2018-Apr-20 16:00N 59°60' E 027°03'510.7
2018-Apr-20 15:30N 60°02' E 027°12'510.8
2018-Apr-20 15:00N 60°05' E 027°22'511.0
2018-Apr-20 14:30N 60°08' E 027°31'611.1
2018-Apr-20 14:00N 60°11' E 027°41'510.9
2018-Apr-20 13:30N 60°14' E 027°49'611.2
2018-Apr-20 13:00N 60°19' E 027°56'611.3
2018-Apr-20 12:30N 60°23' E 028°03'510.7
2018-Apr-20 12:00N 60°26' E 028°12'12 0.2
2018-Apr-18 11:54N 60°35' E 028°28'8 9.3
2018-Apr-18 11:03N 60°28' E 028°20'213.2
2018-Apr-18 10:54N 60°27' E 028°17'511.3
2018-Apr-18 10:30N 60°25' E 028°09'813.8
2018-Apr-18 09:57N 60°19' E 027°58'510.8
2018-Apr-18 09:30N 60°15' E 027°53'611.3
2018-Apr-18 09:00N 60°11' E 027°46'5 9.2
2018-Apr-18 08:30N 60°12' E 027°37'712.9
2018-Apr-18 08:00N 60°12' E 027°24'5 9.6
2018-Apr-18 07:31N 60°15' E 027°17'611.0
2018-Apr-18 07:00N 60°19' E 027°10'612.2
2018-Apr-18 06:31N 60°25' E 027°08'611.9
2018-Apr-18 06:00N 60°31' E 027°10'0 0.6
2018-Apr-18 05:28N 60°31' E 027°10'0 0.0
2018-Apr-18 05:01N 60°31' E 027°10'0 0.0
2018-Apr-18 04:24N 60°31' E 027°10'0 0.0
2018-Apr-18 03:48N 60°31' E 027°10'0 0.0
2018-Apr-18 03:30N 60°31' E 027°10'0 0.0
2018-Apr-18 02:57N 60°31' E 027°10'0 0.0
2018-Apr-18 02:26N 60°31' E 027°10'0 0.0
2018-Apr-18 01:59N 60°31' E 027°10'0 0.0
2018-Apr-18 01:29N 60°31' E 027°10'0 0.0
2018-Apr-18 00:56N 60°31' E 027°10'0 0.0
2018-Apr-18 00:29N 60°31' E 027°10'0 0.0
2018-Apr-17 23:55N 60°31' E 027°10'0 0.0
2018-Apr-17 23:28N 60°31' E 027°10'0 0.0
2018-Apr-17 22:58N 60°31' E 027°10'0 0.0
2018-Apr-17 22:25N 60°31' E 027°10'0 0.0
2018-Apr-17 22:01N 60°31' E 027°10'0 0.0
2018-Apr-17 21:30N 60°31' E 027°10'0 0.0
2018-Apr-17 21:00N 60°31' E 027°10'0 0.0
2018-Apr-17 20:18N 60°31' E 027°10'0 0.0
2018-Apr-17 20:00N 60°31' E 027°10'0 0.0
2018-Apr-17 19:23N 60°31' E 027°10'0 0.0
2018-Apr-17 18:59N 60°31' E 027°10'0 0.0
2018-Apr-17 18:29N 60°31' E 027°10'0 0.0
2018-Apr-17 17:59N 60°31' E 027°10'0 0.0
2018-Apr-17 17:29N 60°31' E 027°10'0 0.0
2018-Apr-17 16:55N 60°31' E 027°10'0 0.0
2018-Apr-17 16:25N 60°31' E 027°10'0 0.0
2018-Apr-17 15:52N 60°31' E 027°10'0 0.0
2018-Apr-17 15:25N 60°31' E 027°10'0 0.0
2018-Apr-17 14:54N 60°31' E 027°10'0 0.0
2018-Apr-17 14:30N 60°31' E 027°10'0 0.0
2018-Apr-17 13:51N 60°31' E 027°10'0 0.0
2018-Apr-17 13:21N 60°31' E 027°10'0 0.0
2018-Apr-17 12:57N 60°31' E 027°10'0 0.0
2018-Apr-17 12:26N 60°31' E 027°10'0 0.0
2018-Apr-17 11:59N 60°31' E 027°10'0 0.0
2018-Apr-17 11:29N 60°31' E 027°10'0 0.0
2018-Apr-17 10:32N 60°31' E 027°10'0 0.0
2018-Apr-17 10:25N 60°31' E 027°10'0 0.0
2018-Apr-17 09:55N 60°31' E 027°10'0 0.0
2018-Apr-17 09:25N 60°31' E 027°10'0 0.0
2018-Apr-17 08:49N 60°31' E 027°10'0 0.0
2018-Apr-17 08:25N 60°31' E 027°10'0 0.0
2018-Apr-17 07:48N 60°31' E 027°10'0 0.0
2018-Apr-17 07:30N 60°31' E 027°10'0 0.0
2018-Apr-17 06:18N 60°31' E 027°10'0 0.0
2018-Apr-17 05:23N 60°31' E 027°10'0 0.0
2018-Apr-17 04:53N 60°31' E 027°10'0 0.0
2018-Apr-17 04:17N 60°31' E 027°10'0 0.0
2018-Apr-17 03:35N 60°31' E 027°10'0 0.0
2018-Apr-17 03:10N 60°31' E 027°10'0 0.0
2018-Apr-17 02:58N 60°31' E 027°10'0 0.0
2018-Apr-17 02:28N 60°31' E 027°10'0 0.0
2018-Apr-17 01:58N 60°31' E 027°10'0 0.0
2018-Apr-17 01:10N 60°31' E 027°10'0 0.0
2018-Apr-17 00:57N 60°31' E 027°10'0 0.0
2018-Apr-16 22:57N 60°31' E 027°10'0 0.0
2018-Apr-16 22:08N 60°31' E 027°10'0 0.0
2018-Apr-16 04:48N 60°31' E 027°10'0 0.0
2018-Apr-16 04:28N 60°31' E 027°10'3 5.2
2018-Apr-16 03:58N 60°29' E 027°08'510.4
2018-Apr-16 03:30N 60°24' E 027°09'4 8.0
2018-Apr-16 02:59N 60°21' E 027°05'511.2
2018-Apr-16 02:30N 60°22' E 026°54'611.1
2018-Apr-16 02:01N 60°22' E 026°43'511.0
2018-Apr-16 01:31N 60°19' E 026°35'611.0
2018-Apr-16 01:00N 60°15' E 026°26'510.5
2018-Apr-16 00:30N 60°10' E 026°22'611.6
2018-Apr-16 00:00N 60°06' E 026°15'3211.0
2018-Apr-15 21:07N 59°49' E 025°20'111.3
2018-Apr-15 21:00N 59°49' E 025°17'611.4
2018-Apr-15 20:30N 59°48' E 025°06'611.6
2018-Apr-15 20:00N 59°47' E 024°55'611.4
2018-Apr-15 19:30N 59°45' E 024°44'611.3
2018-Apr-15 19:01N 59°44' E 024°33'611.4
2018-Apr-15 18:30N 59°43' E 024°22'611.3
2018-Apr-15 17:56N 59°41' E 024°10'911.2
2018-Apr-15 17:08N 59°38' E 023°53'111.3
2018-Apr-15 17:00N 59°37' E 023°51'611.6
2018-Apr-15 16:29N 59°35' E 023°39'711.5
2018-Apr-15 15:55N 59°33' E 023°27'  
Track history (hours):
 
Tides and Currents Weather Stations Pressure Air Temp Water Temp Dewpoint Dewpoint Depression Visibility Wind Speed Wind Dir Waves Ship Positions

Isis

Last reported at 2018-Apr-23 13:30 UTC. Time now 2018-Apr-23 13:36 UTC.
Position N 54°10' E 009°26'.

Length 111 m; draft 6.3 m.

Type: Cargo ship. MMSI: 244768000.

Date/timePositionNaut miles runAvg speedWind from/ knotsBaromVisibWave heightAir tempDewpointWater temp
2018-Apr-23 13:30N 54°10' E 009°26'4 8.1
2018-Apr-23 13:00N 54°12' E 009°33'0 0.6
2018-Apr-23 12:30N 54°12' E 009°33'3 6.1
2018-Apr-23 12:00N 54°14' E 009°37'3 6.6
2018-Apr-23 11:30N 54°17' E 009°39'3 6.0
2018-Apr-23 11:00N 54°19' E 009°43'1 1.7
2018-Apr-23 10:30N 54°20' E 009°44'4 7.8
2018-Apr-23 09:59N 54°22' E 009°50'29 4.4
2018-Apr-23 03:15N 54°34' E 010°36'311.0
2018-Apr-23 03:00N 54°35' E 010°40'510.8
2018-Apr-23 02:30N 54°35' E 010°50'510.7
2018-Apr-23 02:00N 54°35' E 010°59'611.4
2018-Apr-23 01:31N 54°36' E 011°09'611.5
2018-Apr-23 01:01N 54°34' E 011°18'611.4
2018-Apr-23 00:30N 54°32' E 011°27'611.2
2018-Apr-23 00:00N 54°29' E 011°36'611.3
2018-Apr-22 23:30N 54°27' E 011°44'611.1
2018-Apr-22 22:57N 54°27' E 011°55'511.8
2018-Apr-22 22:29N 54°27' E 012°04'510.6
2018-Apr-22 22:00N 54°30' E 012°11'611.7
2018-Apr-22 21:30N 54°36' E 012°15'611.1
2018-Apr-22 21:00N 54°39' E 012°22'611.7
2018-Apr-22 20:30N 54°43' E 012°30'611.8
2018-Apr-22 19:59N 54°46' E 012°39'611.8
2018-Apr-22 19:27N 54°49' E 012°49'1111.8
2018-Apr-22 18:29N 54°53' E 013°07'1011.8
2018-Apr-22 17:39N 54°56' E 013°23'1111.4
2018-Apr-22 16:42N 54°60' E 013°41'1411.4
2018-Apr-22 15:26N 55°05' E 014°04'811.5
2018-Apr-22 14:44N 55°12' E 014°13'311.7
2018-Apr-22 14:29N 55°14' E 014°16'611.4
2018-Apr-22 13:57N 55°19' E 014°23'511.3
2018-Apr-22 13:30N 55°22' E 014°29'611.4
2018-Apr-22 13:00N 55°27' E 014°35'611.5
2018-Apr-22 12:30N 55°30' E 014°44'611.7
2018-Apr-22 12:00N 55°33' E 014°53'611.8
2018-Apr-22 11:31N 55°36' E 015°02'611.4
2018-Apr-22 11:01N 55°38' E 015°11'611.4
2018-Apr-22 10:30N 55°41' E 015°19'611.5
2018-Apr-22 10:01N 55°44' E 015°28'611.4
2018-Apr-22 09:31N 55°47' E 015°37'611.5
2018-Apr-22 09:00N 55°50' E 015°46'611.4
2018-Apr-22 08:30N 55°53' E 015°55'611.6
2018-Apr-22 08:00N 55°56' E 016°04'611.4
2018-Apr-22 07:30N 55°58' E 016°12'611.4
2018-Apr-22 07:00N 56°01' E 016°21'611.6
2018-Apr-22 06:31N 56°04' E 016°30'611.6
2018-Apr-22 06:00N 56°07' E 016°39'611.5
2018-Apr-22 05:30N 56°10' E 016°48'510.7
2018-Apr-22 05:01N 56°13' E 016°55'611.1
2018-Apr-22 04:31N 56°17' E 017°03'611.4
2018-Apr-22 04:00N 56°20' E 017°11'611.4
2018-Apr-22 03:30N 56°24' E 017°20'22611.2
2018-Apr-21 07:14N 59°17' E 021°53'4010.4
2018-Apr-21 03:22N 59°36' E 023°03'510.9
2018-Apr-21 02:52N 59°37' E 023°13'411.0
2018-Apr-21 02:30N 59°39' E 023°21'511.1
2018-Apr-21 02:01N 59°40' E 023°31'611.1
2018-Apr-21 01:31N 59°42' E 023°42'610.9
2018-Apr-21 01:00N 59°43' E 023°53'1311.0
2018-Apr-20 23:47N 59°47' E 024°18'311.0
2018-Apr-20 23:30N 59°47' E 024°24'510.9
2018-Apr-20 23:01N 59°48' E 024°35'510.9
2018-Apr-20 22:30N 59°49' E 024°45'611.3
2018-Apr-20 22:00N 59°51' E 024°56'611.3
2018-Apr-20 21:30N 59°52' E 025°07'3310.9
2018-Apr-20 18:28N 59°59' E 026°12'510.6
2018-Apr-20 18:00N 59°60' E 026°22'510.5
2018-Apr-20 17:30N 60°01' E 026°32'510.2
2018-Apr-20 17:01N 60°01' E 026°42'610.6
2018-Apr-20 16:27N 60°00' E 026°54'510.8
2018-Apr-20 16:00N 59°60' E 027°03'510.7
2018-Apr-20 15:30N 60°02' E 027°12'510.8
2018-Apr-20 15:00N 60°05' E 027°22'511.0
2018-Apr-20 14:30N 60°08' E 027°31'611.1
2018-Apr-20 14:00N 60°11' E 027°41'510.9
2018-Apr-20 13:30N 60°14' E 027°49'611.2
2018-Apr-20 13:00N 60°19' E 027°56'611.3
2018-Apr-20 12:30N 60°23' E 028°03'510.7
2018-Apr-20 12:00N 60°26' E 028°12'12 0.2
2018-Apr-18 11:54N 60°35' E 028°28'8 9.3
2018-Apr-18 11:03N 60°28' E 028°20'213.2
2018-Apr-18 10:54N 60°27' E 028°17'511.3
2018-Apr-18 10:30N 60°25' E 028°09'813.8
2018-Apr-18 09:57N 60°19' E 027°58'510.8
2018-Apr-18 09:30N 60°15' E 027°53'611.3
2018-Apr-18 09:00N 60°11' E 027°46'5 9.2
2018-Apr-18 08:30N 60°12' E 027°37'712.9
2018-Apr-18 08:00N 60°12' E 027°24'5 9.6
2018-Apr-18 07:31N 60°15' E 027°17'611.0
2018-Apr-18 07:00N 60°19' E 027°10'612.2
2018-Apr-18 06:31N 60°25' E 027°08'611.9
2018-Apr-18 06:00N 60°31' E 027°10'0 0.6
2018-Apr-18 05:28N 60°31' E 027°10'0 0.0
2018-Apr-18 05:01N 60°31' E 027°10'0 0.0
2018-Apr-18 04:24N 60°31' E 027°10'0 0.0
2018-Apr-18 03:48N 60°31' E 027°10'0 0.0
2018-Apr-18 03:30N 60°31' E 027°10'0 0.0
2018-Apr-18 02:57N 60°31' E 027°10'0 0.0
2018-Apr-18 02:26N 60°31' E 027°10'0 0.0
2018-Apr-18 01:59N 60°31' E 027°10'0 0.0
2018-Apr-18 01:29N 60°31' E 027°10'0 0.0
2018-Apr-18 00:56N 60°31' E 027°10'0 0.0
2018-Apr-18 00:29N 60°31' E 027°10'0 0.0
2018-Apr-17 23:55N 60°31' E 027°10'0 0.0
2018-Apr-17 23:28N 60°31' E 027°10'0 0.0
2018-Apr-17 22:58N 60°31' E 027°10'0 0.0
2018-Apr-17 22:25N 60°31' E 027°10'0 0.0
2018-Apr-17 22:01N 60°31' E 027°10'0 0.0
2018-Apr-17 21:30N 60°31' E 027°10'0 0.0
2018-Apr-17 21:00N 60°31' E 027°10'0 0.0
2018-Apr-17 20:18N 60°31' E 027°10'0 0.0
2018-Apr-17 20:00N 60°31' E 027°10'0 0.0
2018-Apr-17 19:23N 60°31' E 027°10'0 0.0
2018-Apr-17 18:59N 60°31' E 027°10'0 0.0
2018-Apr-17 18:29N 60°31' E 027°10'0 0.0
2018-Apr-17 17:59N 60°31' E 027°10'0 0.0
2018-Apr-17 17:29N 60°31' E 027°10'0 0.0
2018-Apr-17 16:55N 60°31' E 027°10'0 0.0
2018-Apr-17 16:25N 60°31' E 027°10'0 0.0
2018-Apr-17 15:52N 60°31' E 027°10'0 0.0
2018-Apr-17 15:25N 60°31' E 027°10'0 0.0
2018-Apr-17 14:54N 60°31' E 027°10'0 0.0
2018-Apr-17 14:30N 60°31' E 027°10'0 0.0
2018-Apr-17 13:51N 60°31' E 027°10'0 0.0
2018-Apr-17 13:21N 60°31' E 027°10'0 0.0
2018-Apr-17 12:57N 60°31' E 027°10'0 0.0
2018-Apr-17 12:26N 60°31' E 027°10'0 0.0
2018-Apr-17 11:59N 60°31' E 027°10'0 0.0
2018-Apr-17 11:29N 60°31' E 027°10'0 0.0
2018-Apr-17 10:32N 60°31' E 027°10'0 0.0
2018-Apr-17 10:25N 60°31' E 027°10'0 0.0
2018-Apr-17 09:55N 60°31' E 027°10'0 0.0
2018-Apr-17 09:25N 60°31' E 027°10'0 0.0
2018-Apr-17 08:49N 60°31' E 027°10'0 0.0
2018-Apr-17 08:25N 60°31' E 027°10'0 0.0
2018-Apr-17 07:48N 60°31' E 027°10'0 0.0
2018-Apr-17 07:30N 60°31' E 027°10'0 0.0
2018-Apr-17 06:18N 60°31' E 027°10'0 0.0
2018-Apr-17 05:23N 60°31' E 027°10'0 0.0
2018-Apr-17 04:53N 60°31' E 027°10'0 0.0
2018-Apr-17 04:17N 60°31' E 027°10'0 0.0
2018-Apr-17 03:35N 60°31' E 027°10'0 0.0
2018-Apr-17 03:10N 60°31' E 027°10'0 0.0
2018-Apr-17 02:58N 60°31' E 027°10'0 0.0
2018-Apr-17 02:28N 60°31' E 027°10'0 0.0
2018-Apr-17 01:58N 60°31' E 027°10'0 0.0
2018-Apr-17 01:10N 60°31' E 027°10'0 0.0
2018-Apr-17 00:57N 60°31' E 027°10'0 0.0
2018-Apr-16 22:57N 60°31' E 027°10'0 0.0
2018-Apr-16 22:08N 60°31' E 027°10'0 0.0
2018-Apr-16 04:48N 60°31' E 027°10'0 0.0
2018-Apr-16 04:28N 60°31' E 027°10'3 5.2
2018-Apr-16 03:58N 60°29' E 027°08'510.4
2018-Apr-16 03:30N 60°24' E 027°09'4 8.0
2018-Apr-16 02:59N 60°21' E 027°05'511.2
2018-Apr-16 02:30N 60°22' E 026°54'611.1
2018-Apr-16 02:01N 60°22' E 026°43'511.0
2018-Apr-16 01:31N 60°19' E 026°35'611.0
2018-Apr-16 01:00N 60°15' E 026°26'510.5
2018-Apr-16 00:30N 60°10' E 026°22'611.6
2018-Apr-16 00:00N 60°06' E 026°15'3211.0
2018-Apr-15 21:07N 59°49' E 025°20'111.3
2018-Apr-15 21:00N 59°49' E 025°17'611.4
2018-Apr-15 20:30N 59°48' E 025°06'611.6
2018-Apr-15 20:00N 59°47' E 024°55'611.4
2018-Apr-15 19:30N 59°45' E 024°44'611.3
2018-Apr-15 19:01N 59°44' E 024°33'611.4
2018-Apr-15 18:30N 59°43' E 024°22'611.3
2018-Apr-15 17:56N 59°41' E 024°10'911.2
2018-Apr-15 17:08N 59°38' E 023°53'111.3
2018-Apr-15 17:00N 59°37' E 023°51'611.6
2018-Apr-15 16:29N 59°35' E 023°39'711.5
2018-Apr-15 15:55N 59°33' E 023°27'  

Dump ship's entire track history